Time;durP1;ratioP1;P1;durP2;ratioP2;P2;SDS_P1;SDS_P2;PMS_P1;PMS_P2;Temp;Humidity;BMP_temperature;BMP_pressure;BME280_temperature;BME280_humidity;BME280_pressure;Samples;Min_cycle;Max_cycle;Signal;HPM_P1;HPM_P2
2022/03/23 05:02:38;;;;;;;20.73;18.53;;;3.80;99.90;;;;;;4995690;28;20451;-60
2022/03/23 05:05:05;;;;;;;21.13;19.03;;;3.70;99.90;;;;;;4997064;28;20511;-60
2022/03/23 05:07:32;;;;;;;22.10;19.10;;;3.70;99.90;;;;;;4997322;28;20458;-62
2022/03/23 05:09:58;;;;;;;22.00;17.40;;;3.70;99.90;;;;;;4997206;28;20457;-61
2022/03/23 05:12:25;;;;;;;23.10;18.70;;;3.70;99.90;;;;;;4996411;28;20476;-61
2022/03/23 05:14:52;;;;;;;24.27;18.97;;;3.80;99.90;;;;;;4996244;28;20463;-61
2022/03/23 05:17:18;;;;;;;22.83;19.17;;;3.80;99.90;;;;;;4996964;28;20462;-63
2022/03/23 05:19:47;;;;;;;20.50;18.30;;;3.80;99.90;;;;;;4999998;28;20450;-62
2022/03/23 05:22:13;;;;;;;24.87;19.57;;;3.80;99.90;;;;;;5002822;28;20485;-62
2022/03/23 05:24:40;;;;;;;23.37;20.80;;;3.80;99.90;;;;;;5003394;28;20632;-61
2022/03/23 05:27:08;;;;;;;20.53;18.37;;;3.90;99.90;;;;;;5003019;28;20814;-61
2022/03/23 05:29:35;;;;;;;21.53;19.23;;;3.90;99.90;;;;;;5000394;28;20492;-61
2022/03/23 05:32:01;;;;;;;24.60;19.17;;;3.90;99.90;;;;;;4996877;28;20482;-62
2022/03/23 05:34:28;;;;;;;20.47;18.37;;;4.00;99.90;;;;;;4997148;28;20508;-60
2022/03/23 05:36:56;;;;;;;20.67;18.47;;;4.10;99.90;;;;;;4997158;28;20453;-60
2022/03/23 05:39:23;;;;;;;22.63;19.87;;;4.10;99.90;;;;;;4997214;28;20462;-60
2022/03/23 05:41:49;;;;;;;21.43;19.23;;;4.10;99.90;;;;;;4997043;28;20548;-61
2022/03/23 05:44:16;;;;;;;26.23;20.80;;;4.20;99.90;;;;;;4996798;28;20454;-62
2022/03/23 05:46:43;;;;;;;21.67;19.47;;;4.20;99.90;;;;;;4997223;28;20460;-61
2022/03/23 05:49:10;;;;;;;21.90;19.10;;;4.20;99.90;;;;;;4996905;28;20458;-62
2022/03/23 05:51:36;;;;;;;22.60;20.40;;;4.20;99.90;;;;;;4996999;28;20478;-62
2022/03/23 05:54:04;;;;;;;22.53;19.30;;;4.20;99.90;;;;;;4997302;28;21047;-63
2022/03/23 05:56:31;;;;;;;23.30;20.07;;;4.10;99.90;;;;;;4996997;28;20462;-61
2022/03/23 05:58:58;;;;;;;24.67;21.57;;;4.00;99.90;;;;;;4996845;28;20456;-62
2022/03/23 06:01:24;;;;;;;22.73;19.70;;;4.00;99.90;;;;;;4996771;28;20500;-63
2022/03/23 06:03:51;;;;;;;21.57;17.83;;;4.00;99.90;;;;;;4996813;28;20481;-61
2022/03/23 06:06:18;;;;;;;21.93;19.63;;;4.00;99.90;;;;;;4996540;28;20536;-62
2022/03/23 06:08:45;;;;;;;22.20;19.73;;;4.10;99.90;;;;;;4995990;28;20472;-61
2022/03/23 06:11:13;;;;;;;24.37;20.87;;;4.10;99.90;;;;;;4996649;28;20485;-61
2022/03/23 06:13:40;;;;;;;22.33;20.00;;;4.10;99.90;;;;;;4996620;28;20480;-61
2022/03/23 06:16:08;;;;;;;21.90;19.70;;;4.20;99.90;;;;;;4996581;28;20462;-61
2022/03/23 06:18:35;;;;;;;24.60;19.67;;;4.30;99.90;;;;;;4996336;28;20468;-61
2022/03/23 06:21:01;;;;;;;22.07;18.97;;;4.30;99.90;;;;;;4998610;28;20815;-61
2022/03/23 06:23:28;;;;;;;22.63;19.63;;;4.50;99.90;;;;;;5000893;28;20373;-62
2022/03/23 06:25:55;;;;;;;21.23;19.03;;;4.60;99.90;;;;;;4996291;28;20352;-61
2022/03/23 06:28:24;;;;;;;20.57;18.40;;;4.90;99.90;;;;;;4996160;28;20453;-62
2022/03/23 06:30:50;;;;;;;21.30;19.20;;;5.50;99.90;;;;;;4994603;28;20583;-61
2022/03/23 06:33:17;;;;;;;20.90;18.70;;;6.10;99.90;;;;;;4995707;28;20474;-61
2022/03/23 06:35:44;;;;;;;21.00;18.63;;;6.80;99.90;;;;;;4994907;28;20450;-62
2022/03/23 06:38:11;;;;;;;20.50;18.10;;;7.50;97.80;;;;;;4994847;28;20485;-61
2022/03/23 06:40:38;;;;;;;19.57;17.53;;;8.10;95.60;;;;;;4995762;28;20489;-61
2022/03/23 06:43:05;;;;;;;19.97;17.87;;;8.60;93.40;;;;;;5008125;28;20456;-62
2022/03/23 06:45:33;;;;;;;24.93;18.50;;;9.20;92.10;;;;;;4994954;28;20465;-62
2022/03/23 06:48:00;;;;;;;24.70;17.53;;;9.80;90.10;;;;;;4994693;28;20504;-61
2022/03/23 06:50:26;;;;;;;18.83;16.93;;;10.40;83.20;;;;;;4994487;28;20454;-62
2022/03/23 06:52:53;;;;;;;21.60;19.10;;;10.90;79.90;;;;;;4994856;28;20481;-61
2022/03/23 06:55:20;;;;;;;22.07;18.17;;;11.20;75.40;;;;;;4994441;28;20497;-61
2022/03/23 06:57:46;;;;;;;23.53;17.53;;;11.60;73.70;;;;;;4994870;28;20944;-61
2022/03/23 07:00:14;;;;;;;24.30;20.23;;;11.90;73.10;;;;;;4994209;28;20461;-60
2022/03/23 07:02:43;;;;;;;22.13;18.63;;;12.10;69.20;;;;;;4994552;28;20812;-61
2022/03/23 07:05:11;;;;;;;19.73;17.83;;;12.40;69.70;;;;;;4994403;28;20512;-61
2022/03/23 07:07:38;;;;;;;20.23;18.23;;;12.70;67.10;;;;;;4994832;28;20457;-62
2022/03/23 07:10:06;;;;;;;23.80;18.47;;;12.90;66.80;;;;;;4994506;28;20820;-62
2022/03/23 07:12:33;;;;;;;20.67;18.53;;;13.10;65.40;;;;;;4994285;28;20474;-62
2022/03/23 07:14:59;;;;;;;19.90;17.90;;;13.40;64.20;;;;;;4994140;28;20478;-62
2022/03/23 07:17:26;;;;;;;25.73;19.47;;;13.30;63.50;;;;;;4993955;28;20792;-61
2022/03/23 07:19:54;;;;;;;21.70;19.43;;;13.80;62.90;;;;;;4994462;28;20524;-61
2022/03/23 07:22:21;;;;;;;23.47;20.83;;;14.00;60.90;;;;;;4998250;28;20484;-63
2022/03/23 07:24:48;;;;;;;26.43;20.00;;;13.40;61.00;;;;;;4997959;28;20958;-62
2022/03/23 07:27:14;;;;;;;23.33;18.03;;;13.80;62.10;;;;;;4998448;28;20853;-63
2022/03/23 07:29:41;;;;;;;21.30;18.93;;;14.40;61.60;;;;;;5000453;28;20455;-64
2022/03/23 07:32:09;;;;;;;24.97;21.10;;;14.90;60.80;;;;;;4999063;28;20474;-63
2022/03/23 07:34:35;;;;;;;23.77;20.27;;;15.20;60.40;;;;;;4998776;28;20564;-62
2022/03/23 07:37:04;;;;;;;22.77;20.30;;;15.20;58.30;;;;;;4999329;28;20489;-62
2022/03/23 07:39:30;;;;;;;21.93;19.43;;;15.60;58.20;;;;;;4998536;28;20460;-62
2022/03/23 07:41:59;;;;;;;;;;;16.10;57.80;;;;;;4998622;28;20478;-62
2022/03/23 07:44:25;;;;;;;23.10;20.80;;;16.00;56.30;;;;;;5000524;28;20390;-63
2022/03/23 07:46:53;;;;;;;;;;;16.10;56.70;;;;;;4998505;28;20461;-63
2022/03/23 07:49:19;;;;;;;;;;;16.70;56.60;;;;;;4999764;28;20339;-63
2022/03/23 07:51:46;;;;;;;;;;;17.10;54.70;;;;;;5000899;28;19945;-62
2022/03/23 07:54:14;;;;;;;;;;;17.40;53.90;;;;;;4998733;28;19926;-63
2022/03/23 07:56:41;;;;;;;;;;;17.60;54.50;;;;;;4999851;28;19925;-63
2022/03/23 07:59:07;;;;;;;;;;;17.90;53.30;;;;;;4999482;28;19949;-63
2022/03/23 08:01:34;;;;;;;;;;;18.40;52.60;;;;;;4998878;28;19930;-62
2022/03/23 08:04:01;;;;;;;;;;;18.60;52.20;;;;;;4999141;28;20290;-63
2022/03/23 08:06:28;;;;;;;;;;;18.50;51.00;;;;;;4998804;28;19928;-61
2022/03/23 08:08:56;;;;;;;;;;;18.60;51.40;;;;;;4999279;28;19922;-62
2022/03/23 08:11:24;;;;;;;;;;;19.10;51.50;;;;;;4998552;28;19921;-62
2022/03/23 08:13:50;;;;;;;;;;;19.60;51.30;;;;;;4998098;28;19926;-61
2022/03/23 08:16:18;;;;;;;;;;;20.00;49.90;;;;;;4999583;28;19926;-64
2022/03/23 08:18:44;;;;;;;;;;;20.20;49.70;;;;;;4998950;28;19922;-62
2022/03/23 08:21:11;;;;;;;;;;;20.60;49.20;;;;;;4998358;28;19925;-63
2022/03/23 08:23:40;;;;;;;;;;;21.20;49.10;;;;;;4998062;28;20400;-62
2022/03/23 08:26:09;;;;;;;;;;;21.80;49.10;;;;;;4998273;28;19921;-62
2022/03/23 08:28:38;;;;;;;;;;;21.70;47.60;;;;;;4998179;28;19922;-62
2022/03/23 08:31:04;;;;;;;;;;;21.70;47.10;;;;;;5001353;28;19965;-62
2022/03/23 08:33:34;;;;;;;;;;;21.50;47.50;;;;;;5006608;28;19934;-61
2022/03/23 08:36:00;;;;;;;;;;;21.20;47.70;;;;;;4998011;28;19972;-62
2022/03/23 08:38:27;;;;;;;;;;;21.10;46.40;;;;;;4997484;28;19921;-62
2022/03/23 08:40:54;;;;;;;;;;;20.70;46.30;;;;;;4998045;28;19929;-62
2022/03/23 08:43:20;;;;;;;;;;;20.50;47.40;;;;;;4998323;28;20301;-62
2022/03/23 08:45:49;;;;;;;;;;;20.90;46.50;;;;;;4997951;28;19926;-62
2022/03/23 08:48:18;;;;;;;;;;;21.40;48.00;;;;;;5001373;28;20288;-62
2022/03/23 08:50:45;;;;;;;;;;;21.10;47.90;;;;;;5002938;28;19928;-62
2022/03/23 08:53:12;;;;;;;;;;;21.10;47.00;;;;;;5003203;28;19926;-62
2022/03/23 08:55:38;;;;;;;;;;;21.40;45.20;;;;;;5003136;28;19922;-62
2022/03/23 08:58:05;;;;;;;;;;;21.20;44.80;;;;;;5002644;28;19922;-62
2022/03/23 09:00:32;;;;;;;;;;;20.90;45.70;;;;;;4998722;28;19922;-62
2022/03/23 09:03:00;;;;;;;;;;;21.60;46.60;;;;;;5008704;28;19928;-63
2022/03/23 09:05:27;;;;;;;;;;;22.40;44.40;;;;;;5003793;28;19921;-63
2022/03/23 09:07:54;;;;;;;;;;;22.20;44.10;;;;;;4998409;28;19921;-62
2022/03/23 09:10:21;;;;;;;;;;;22.20;43.80;;;;;;4998040;28;19932;-62
2022/03/23 09:12:48;;;;;;;;;;;21.70;44.10;;;;;;4997758;28;20020;-62
2022/03/23 09:15:15;;;;;;;;;;;21.80;45.50;;;;;;4997820;28;19929;-61
2022/03/23 09:17:42;;;;;;;;;;;22.30;45.00;;;;;;4997961;28;20427;-62
2022/03/23 09:20:11;;;;;;;;;;;22.90;42.50;;;;;;4997271;28;19922;-62
2022/03/23 09:22:38;;;;;;;;;;;22.50;43.50;;;;;;4997972;28;19922;-62
2022/03/23 09:25:06;;;;;;;;;;;23.00;45.10;;;;;;4997416;28;19921;-62
2022/03/23 09:27:33;;;;;;;;;;;23.30;43.90;;;;;;4997449;28;19922;-62
2022/03/23 09:30:00;;;;;;;;;;;23.30;43.90;;;;;;5003619;28;19960;-62
2022/03/23 09:32:27;;;;;;;;;;;23.60;44.30;;;;;;5003523;28;19922;-62
2022/03/23 09:34:53;;;;;;;;;;;24.00;45.40;;;;;;5000199;28;19921;-64
2022/03/23 09:40:06;;;;;;;;;;;25.60;43.90;;;;;;4997489;28;19968;-62
2022/03/23 09:42:32;;;;;;;;;;;26.30;41.60;;;;;;4997098;28;19928;-63
2022/03/23 09:44:59;;;;;;;;;;;27.10;41.60;;;;;;4997368;28;19925;-62
2022/03/23 09:47:26;;;;;;;;;;;27.90;40.00;;;;;;4997326;28;19998;-62
2022/03/23 09:49:53;;;;;;;;;;;27.20;38.50;;;;;;4997129;28;19921;-62
2022/03/23 09:52:20;;;;;;;;;;;27.30;38.10;;;;;;4997138;28;20035;-62
2022/03/23 09:54:47;;;;;;;;;;;26.80;41.40;;;;;;4996919;28;19922;-62
2022/03/23 09:57:14;;;;;;;;;;;26.70;41.00;;;;;;4997339;28;19933;-62
2022/03/23 09:59:41;;;;;;;;;;;26.90;38.30;;;;;;4996508;28;19945;-62
2022/03/23 10:02:26;;;;;;;;;;;26.60;39.70;;;;;;4997007;28;19922;-62
2022/03/23 10:05:16;;;;;;;;;;;26.70;38.60;;;;;;4998092;28;19948;-62
2022/03/23 10:07:49;;;;;;;;;;;27.00;38.90;;;;;;4998887;28;20420;-63
2022/03/23 10:10:37;;;;;;;;;;;26.80;38.50;;;;;;4998156;28;19921;-62
2022/03/23 10:13:37;;;;;;;;;;;27.40;38.50;;;;;;4996643;28;19922;-62
2022/03/23 10:16:22;;;;;;;;;;;27.00;39.70;;;;;;4996870;28;20373;-61
2022/03/23 10:18:50;;;;;;;;;;;27.70;37.80;;;;;;4997486;28;19976;-62
2022/03/23 10:21:17;;;;;;;;;;;27.70;38.40;;;;;;5001629;28;19968;-61
2022/03/23 10:23:52;;;;;;;;;;;27.50;37.80;;;;;;5004755;28;19929;-61
2022/03/23 10:26:18;;;;;;;;;;;27.70;36.90;;;;;;4997422;28;19921;-61
2022/03/23 10:28:45;;;;;;;;;;;27.60;37.20;;;;;;4996740;28;20297;-62
2022/03/23 10:31:15;;;;;;;;;;;26.90;37.40;;;;;;4997039;28;19922;-62
2022/03/23 10:33:42;;;;;;;;;;;26.80;36.80;;;;;;4995855;28;20416;-61
2022/03/23 10:36:11;;;;;;;;;;;27.70;36.90;;;;;;4996340;28;19929;-61
2022/03/23 10:38:39;;;;;;;;;;;27.90;38.10;;;;;;4996033;28;19922;-63
2022/03/23 10:41:11;;;;;;;;;;;28.30;37.70;;;;;;4995637;28;19928;-61
2022/03/23 10:43:38;;;;;;;;;;;28.20;38.10;;;;;;4995691;28;19922;-61
2022/03/23 10:46:08;;;;;;;;;;;28.00;37.00;;;;;;4995613;28;19929;-61
2022/03/23 10:48:35;;;;;;;;;;;27.70;34.60;;;;;;4995885;28;20025;-62
2022/03/23 10:51:02;;;;;;;;;;;27.40;35.20;;;;;;4997403;28;19948;-61
2022/03/23 10:53:33;;;;;;;;;;;27.10;36.10;;;;;;4995223;28;20353;-61
2022/03/23 10:56:00;;;;;;;;;;;27.50;33.90;;;;;;4995379;28;19921;-62
2022/03/23 10:58:28;;;;;;;;;;;27.00;34.60;;;;;;4995316;28;19933;-61
2022/03/23 11:00:59;;;;;;;;;;;27.10;36.60;;;;;;4995003;28;19929;-62
2022/03/23 11:03:37;;;;;;;;;;;27.40;35.60;;;;;;4995894;28;19929;-62
2022/03/23 11:06:06;;;;;;;;;;;27.30;34.20;;;;;;4995158;28;19921;-62
2022/03/23 11:08:32;;;;;;;;;;;27.00;33.80;;;;;;4994860;28;19933;-62
2022/03/23 11:16:31;;;;;;;;;;;25.90;35.30;;;;;;4994673;28;20465;-61
2022/03/23 11:18:58;;;;;;;;;;;25.20;32.90;;;;;;4994611;28;20373;-61
2022/03/23 11:21:28;;;;;;;;;;;24.60;33.30;;;;;;4994940;28;19957;-61
2022/03/23 11:23:54;;;;;;;;;;;24.50;36.90;;;;;;4995180;28;20351;-61
2022/03/23 11:26:21;;;;;;;;;;;24.30;37.70;;;;;;4995028;28;19922;-62
2022/03/23 11:28:50;;;;;;;;;;;23.90;36.90;;;;;;4994371;28;20469;-60
2022/03/23 11:31:17;;;;;;;;;;;23.80;36.60;;;;;;4994678;28;19976;-61
2022/03/23 11:33:46;;;;;;;;;;;23.80;35.60;;;;;;4994154;28;20424;-62
2022/03/23 11:36:13;;;;;;;;;;;23.70;36.10;;;;;;4994492;28;19932;-62
2022/03/23 11:38:40;;;;;;;;;;;23.50;33.40;;;;;;4994796;28;19925;-61
2022/03/23 11:41:08;;;;;;;;;;;23.50;35.70;;;;;;4994351;28;20381;-61
2022/03/23 11:43:35;;;;;;;;;;;23.50;33.50;;;;;;4996880;28;19921;-61
2022/03/23 11:46:04;;;;;;;;;;;23.10;33.90;;;;;;4998318;28;20369;-61
2022/03/23 11:48:37;;;;;;;;;;;23.20;35.50;;;;;;4996049;28;20301;-60
2022/03/23 11:51:13;;;;;;;;;;;23.00;33.90;;;;;;4995528;28;19921;-61
2022/03/23 11:53:43;;;;;;;;;;;22.90;37.30;;;;;;4997501;28;19929;-62
2022/03/23 11:56:10;;;;;;;;;;;22.70;35.20;;;;;;5000014;28;19921;-62
2022/03/23 11:58:37;;;;;;;;;;;22.70;34.90;;;;;;4996173;28;20357;-61
2022/03/23 12:01:09;;;;;;;;;;;22.80;35.70;;;;;;4994691;28;19969;-61
2022/03/23 12:03:50;;;;;;;;;;;22.80;33.20;;;;;;4995028;28;19921;-61
2022/03/23 12:06:17;;;;;;;;;;;22.70;33.40;;;;;;4994819;28;19984;-62
2022/03/23 12:08:45;;;;;;;;;;;22.60;38.10;;;;;;4997996;28;19922;-62
2022/03/23 12:11:27;;;;;;;;;;;22.70;36.90;;;;;;4997835;28;19992;-61
2022/03/23 12:13:57;;;;;;;;;;;22.90;36.30;;;;;;4996942;28;19921;-61
2022/03/23 12:16:47;;;;;;;;;;;22.90;35.80;;;;;;4997649;28;20016;-61
2022/03/23 12:19:17;;;;;;;;;;;22.70;35.50;;;;;;4997380;28;19929;-61
2022/03/23 12:21:48;;;;;;;;;;;22.70;37.10;;;;;;4997482;28;19921;-62
2022/03/23 12:24:19;;;;;;;;;;;22.80;37.40;;;;;;4997628;28;19922;-62
2022/03/23 12:26:49;;;;;;;;;;;23.00;37.50;;;;;;4997598;28;19922;-62
2022/03/23 12:29:21;;;;;;;;;;;23.20;37.40;;;;;;4997975;28;19922;-60
2022/03/23 12:31:49;;;;;;;;;;;22.90;34.00;;;;;;4999050;28;20325;-61
2022/03/23 12:34:19;;;;;;;;;;;22.30;34.50;;;;;;4997639;28;19926;-61
2022/03/23 12:36:59;;;;;;;;;;;22.30;38.40;;;;;;4998373;28;19929;-61
2022/03/23 12:39:28;;;;;;;;;;;22.30;36.90;;;;;;4997995;28;19968;-61
2022/03/23 12:41:54;;;;;;;;;;;22.20;36.60;;;;;;4997867;28;19928;-61
2022/03/23 12:44:27;;;;;;;;;;;22.40;37.20;;;;;;4997997;28;19969;-62
2022/03/23 12:46:55;;;;;;;;;;;22.60;39.00;;;;;;4999224;28;20413;-62
2022/03/23 12:57:52;;;;;;;;;;;22.80;37.00;;;;;;4997967;28;20048;-63
2022/03/23 13:00:28;;;;;;;;;;;22.90;36.00;;;;;;4997815;28;19922;-62
2022/03/23 13:03:31;;;;;;;;;;;22.90;36.40;;;;;;4998132;28;19922;-62
2022/03/23 13:06:08;;;;;;;;;;;22.90;34.50;;;;;;4997769;28;19922;-62
2022/03/23 13:08:48;;;;;;;;;;;22.80;35.70;;;;;;4998484;28;19921;-62
2022/03/23 13:11:16;;;;;;;;;;;22.60;35.90;;;;;;5000508;28;19921;-62
2022/03/23 13:13:45;;;;;;;;;;;22.40;36.10;;;;;;5003138;28;19949;-61
2022/03/23 13:16:12;;;;;;;;;;;22.40;37.10;;;;;;5001780;28;19929;-61
2022/03/23 13:18:40;;;;;;;;;;;22.40;36.50;;;;;;4998461;28;20381;-61
2022/03/23 13:21:10;;;;;;;;;;;22.30;34.90;;;;;;5002098;28;19929;-62
2022/03/23 13:23:36;;;;;;;;;;;21.90;36.20;;;;;;4999453;28;19926;-61
2022/03/23 13:26:03;;;;;;;;;;;21.90;34.10;;;;;;4998900;28;20344;-62
2022/03/23 13:28:32;;;;;;;;;;;21.80;37.20;;;;;;4999299;28;20333;-62
2022/03/23 13:30:59;;;;;;;;;;;22.00;38.40;;;;;;4998451;28;19922;-62
2022/03/23 13:33:26;;;;;;;;;;;22.20;37.00;;;;;;4998384;28;19995;-62
2022/03/23 13:35:55;;;;;;;;;;;22.30;36.50;;;;;;4997594;28;20312;-62
2022/03/23 13:38:22;;;;;;;;;;;22.10;36.10;;;;;;4997685;28;19976;-62
2022/03/23 13:43:34;;;;;;;;;;;22.40;37.50;;;;;;4997818;28;19972;-62
2022/03/23 13:46:01;;;;;;;;;;;22.60;36.50;;;;;;4997728;28;19922;-62
2022/03/23 13:48:30;;;;;;;;;;;22.50;36.60;;;;;;4996886;28;19929;-62
2022/03/23 13:50:59;;;;;;;;;;;22.50;35.70;;;;;;4996284;28;20088;-62
2022/03/23 13:53:26;;;;;;;;;;;22.20;36.60;;;;;;4996316;28;19945;-62
2022/03/23 13:55:53;;;;;;;;;;;22.30;38.40;;;;;;4995943;28;19941;-62
2022/03/23 13:58:20;;;;;;;;;;;22.40;36.60;;;;;;4997518;28;19932;-62
2022/03/23 14:00:50;;;;;;;;;;;22.40;35.10;;;;;;4996610;28;19949;-61
2022/03/23 14:03:18;;;;;;;;;;;22.50;35.40;;;;;;4996494;28;19921;-62
2022/03/23 14:05:59;;;;;;;;;;;22.70;37.60;;;;;;4996175;28;20400;-62
2022/03/23 14:08:27;;;;;;;;;;;22.80;36.00;;;;;;4995857;28;19921;-63
2022/03/23 14:10:54;;;;;;;;;;;22.70;36.70;;;;;;4995439;28;19945;-63
2022/03/23 14:13:21;;;;;;;;;;;22.80;34.80;;;;;;4995366;28;19922;-62
2022/03/23 14:15:51;;;;;;;;;;;22.70;36.20;;;;;;4994996;28;19921;-62
2022/03/23 14:18:20;;;;;;;;;;;22.80;36.10;;;;;;4995480;28;19922;-62
2022/03/23 14:20:51;;;;;;;;;;;22.50;34.60;;;;;;4995811;28;19965;-61
2022/03/23 14:23:18;;;;;;;;;;;22.50;37.60;;;;;;4995664;28;19921;-62
2022/03/23 14:25:46;;;;;;;;;;;22.60;35.90;;;;;;4995443;28;19921;-62
2022/03/23 14:28:16;;;;;;;;;;;22.60;36.60;;;;;;4995430;28;19926;-62
2022/03/23 14:30:45;;;;;;;;;;;22.80;35.90;;;;;;4995175;28;19922;-61
2022/03/23 14:33:12;;;;;;;;;;;22.70;34.40;;;;;;4995344;28;19938;-62
2022/03/23 14:35:40;;;;;;;;;;;22.60;34.10;;;;;;4995528;28;19928;-61
2022/03/23 14:38:08;;;;;;;;;;;22.60;34.90;;;;;;4995205;28;19929;-61
2022/03/23 14:40:36;;;;;;;;;;;22.50;34.90;;;;;;4995031;28;19921;-62
2022/03/23 14:43:05;;;;;;;;;;;22.50;35.20;;;;;;4995196;28;19969;-61
2022/03/23 14:45:33;;;;;;;;;;;22.30;34.30;;;;;;4995119;28;19968;-62
2022/03/23 14:48:00;;;;;;;;;;;22.20;34.20;;;;;;4995257;28;19929;-62
2022/03/23 14:50:27;;;;;;;;;;;22.20;34.30;;;;;;4995207;28;19922;-62
2022/03/23 14:52:54;;;;;;;;;;;22.10;33.50;;;;;;4995028;28;19926;-63
2022/03/23 14:55:21;;;;;;;;;;;22.10;34.50;;;;;;4994709;28;19930;-62
2022/03/23 14:57:48;;;;;;;;;;;22.20;34.80;;;;;;4995218;28;20052;-63
2022/03/23 15:00:17;;;;;;;;;;;22.00;34.50;;;;;;4994737;28;19921;-62
2022/03/23 15:02:44;;;;;;;;;;;21.90;35.50;;;;;;4995370;28;20440;-62
2022/03/23 15:13:15;;;;;;;;;;;22.10;34.40;;;;;;4996105;28;19921;-62
2022/03/23 15:13:25;;;;;;;;;;;22.30;34.10;;;;;;4995823;28;19924;-62
2022/03/23 15:15:53;;;;;;;;;;;22.30;34.60;;;;;;4996828;28;19930;-63
2022/03/23 15:18:20;;;;;;;;;;;22.20;34.90;;;;;;4996431;28;19929;-63
2022/03/23 15:20:47;;;;;;;;;;;22.20;33.80;;;;;;4997013;28;19926;-61
2022/03/23 15:23:13;;;;;;;;;;;22.00;34.30;;;;;;5007185;28;19932;-63
2022/03/23 15:25:40;;;;;;;;;;;22.00;34.20;;;;;;5002625;28;19944;-61
2022/03/23 15:28:06;;;;;;;;;;;21.90;34.90;;;;;;4998095;28;19926;-61
2022/03/23 15:30:34;;;;;;;;;;;21.80;34.40;;;;;;4996129;28;19984;-62
2022/03/23 15:33:02;;;;;;;;;;;21.60;35.20;;;;;;4995540;28;19956;-62
2022/03/23 15:35:29;;;;;;;;;;;21.50;34.00;;;;;;4995531;28;19921;-62
2022/03/23 15:37:55;;;;;;;;;;;21.60;34.10;;;;;;4995511;28;19922;-62
2022/03/23 15:40:24;;;;;;;;;;;21.60;34.50;;;;;;4995640;28;19922;-61
2022/03/23 15:43:05;;;;;;;;;;;21.50;34.40;;;;;;4998546;28;19929;-62
2022/03/23 15:45:32;;;;;;;;;;;21.40;34.70;;;;;;4999236;28;19961;-62
2022/03/23 15:47:59;;;;;;;;;;;21.20;34.20;;;;;;4999271;28;20333;-62
2022/03/23 15:50:28;;;;;;;;;;;21.20;34.00;;;;;;5006056;28;19953;-62
2022/03/23 15:52:55;;;;;;;;;;;21.10;35.70;;;;;;5006069;28;19922;-62
2022/03/23 15:55:22;;;;;;;;;;;21.10;35.80;;;;;;4999565;28;19976;-63
2022/03/23 15:57:49;;;;;;;;;;;21.00;35.60;;;;;;4999012;28;20020;-62
2022/03/23 16:00:16;;;;;;;;;;;20.90;34.30;;;;;;4998881;28;19925;-62
2022/03/23 16:02:42;;;;;;;;;;;20.70;34.60;;;;;;4998996;28;20373;-62
2022/03/23 16:05:09;;;;;;;;;;;20.70;35.00;;;;;;4998571;28;19926;-61
2022/03/23 16:07:37;;;;;;;;;;;20.60;35.80;;;;;;4999134;28;19968;-61
2022/03/23 16:10:04;;;;;;;;;;;20.40;34.80;;;;;;4998826;28;20395;-61
2022/03/23 16:12:31;;;;;;;;;;;20.30;35.10;;;;;;4998549;28;19922;-62
2022/03/23 16:14:57;;;;;;;;;;;20.00;35.20;;;;;;4998633;28;19922;-62
2022/03/23 16:17:24;;;;;;;;;;;19.80;35.20;;;;;;5003449;28;20083;-62
2022/03/23 16:19:50;;;;;;;;;;;19.60;35.70;;;;;;5004067;28;19922;-61
2022/03/23 16:22:17;;;;;;;;;;;19.40;35.40;;;;;;5004449;28;19921;-62
2022/03/23 16:24:45;;;;;;;;;;;19.40;36.30;;;;;;5000288;28;19922;-62
2022/03/23 16:27:13;;;;;;;;;;;19.30;36.00;;;;;;4999622;28;19949;-63
2022/03/23 16:29:40;;;;;;;;;;;19.20;36.60;;;;;;4999299;28;19976;-62
2022/03/23 16:32:07;;;;;;;;;;;19.10;36.30;;;;;;4998508;28;19921;-62
2022/03/23 16:34:34;;;;;;;;;;;19.10;35.40;;;;;;4999385;28;20385;-61
2022/03/23 16:37:00;;;;;;;;;;;19.00;35.60;;;;;;4998578;28;19968;-63
2022/03/23 16:39:27;;;;;;;;;;;19.00;36.60;;;;;;4998802;28;19937;-62
2022/03/23 16:41:55;;;;;;;;;;;18.90;36.40;;;;;;4999725;28;19925;-62
2022/03/23 16:44:22;;;;;;;;;;;18.80;36.60;;;;;;4999937;28;19944;-62
2022/03/23 16:46:49;;;;;;;;;;;18.60;36.40;;;;;;5003146;28;20369;-62
2022/03/23 16:49:16;;;;;;;;;;;18.50;36.20;;;;;;5003351;28;19925;-64
2022/03/23 16:51:43;;;;;;;;;;;18.60;37.20;;;;;;5004478;28;19921;-62
2022/03/23 16:54:10;;;;;;;;;;;18.50;37.50;;;;;;5004457;28;19984;-62
2022/03/23 16:56:38;;;;;;;;;;;18.50;38.50;;;;;;5001713;28;19922;-62
2022/03/23 16:59:05;;;;;;;;;;;18.50;36.90;;;;;;4999396;28;19922;-62
2022/03/23 17:01:32;;;;;;;;;;;18.40;37.10;;;;;;4999681;28;19921;-63
2022/03/23 17:12:26;;;;;;;;;;;18.10;37.10;;;;;;4997108;28;19945;-62
2022/03/23 17:14:55;;;;;;;;;;;18.10;37.90;;;;;;4997488;28;20325;-62
2022/03/23 17:17:23;;;;;;;;;;;18.00;37.60;;;;;;4998267;28;19945;-61
2022/03/23 17:19:50;;;;;;;;;;;17.90;38.00;;;;;;4998481;28;19922;-62
2022/03/23 17:22:16;;;;;;;;;;;17.80;37.90;;;;;;4997265;28;19922;-61
2022/03/23 17:24:43;;;;;;;;;;;17.70;37.90;;;;;;4996872;28;19925;-62
2022/03/23 17:27:11;;;;;;;;;;;17.60;37.90;;;;;;4997365;28;19922;-62
2022/03/23 17:29:39;;;;;;;;;;;17.50;38.10;;;;;;4996780;28;20376;-62
2022/03/23 17:32:08;;;;;;;;;;;17.40;38.30;;;;;;4996902;28;19925;-63
2022/03/23 17:34:35;;;;;;;;;;;17.30;39.10;;;;;;4996706;28;19921;-63
2022/03/23 17:37:01;;;;;;;;;;;17.20;38.90;;;;;;4996382;28;19928;-62
2022/03/23 17:39:28;;;;;;;;;;;17.10;38.70;;;;;;4998782;28;19921;-62
2022/03/23 17:41:56;;;;;;;;;;;17.00;39.50;;;;;;4997609;28;19960;-62
2022/03/23 17:44:23;;;;;;;;;;;16.90;40.00;;;;;;5000320;28;19957;-64
2022/03/23 17:46:50;;;;;;;;;;;16.80;40.40;;;;;;4999985;28;19972;-62
2022/03/23 17:49:18;;;;;;;;;;;16.70;40.30;;;;;;4996095;28;19968;-63
2022/03/23 17:51:45;;;;;;;;;;;16.60;41.00;;;;;;4996012;28;20000;-62
2022/03/23 17:54:12;;;;;;;;;;;16.50;41.10;;;;;;4996015;28;19922;-62
2022/03/23 17:56:38;;;;;;;;;;;16.40;41.60;;;;;;4996012;28;19922;-62
2022/03/23 17:59:05;;;;;;;;;;;16.30;41.70;;;;;;4995651;28;20266;-62
2022/03/23 18:01:33;;;;;;;;;;;16.20;40.90;;;;;;4995872;28;19922;-62
2022/03/23 18:04:00;;;;;;;;;;;16.10;41.50;;;;;;4995484;28;20005;-62
2022/03/23 18:06:28;;;;;;;;;;;16.00;41.70;;;;;;4995778;28;20395;-62
2022/03/23 18:08:55;;;;;;;;;;;15.90;41.60;;;;;;4996806;28;19953;-61
2022/03/23 18:11:21;;;;;;;;;;;15.90;41.80;;;;;;4995803;28;19925;-62
2022/03/23 18:13:48;;;;;;;;;;;15.80;42.50;;;;;;4995182;28;20294;-61
2022/03/23 18:16:15;;;;;;;;;;;15.70;42.20;;;;;;4995504;28;19929;-61
2022/03/23 18:18:41;;;;;;;;;;;15.60;42.10;;;;;;4995542;28;20038;-61
2022/03/23 18:21:08;;;;;;;;;;;15.60;41.80;;;;;;4995388;28;19921;-63
2022/03/23 18:23:36;;;;;;;;;;;15.50;42.70;;;;;;4995568;28;19921;-62
2022/03/23 18:26:02;;;;;;;;;;;15.40;43.10;;;;;;4995436;28;19944;-62
2022/03/23 18:28:29;;;;;;;;;;;15.40;43.30;;;;;;4995604;28;19984;-61
2022/03/23 18:30:55;;;;;;;;;;;15.30;43.60;;;;;;4995380;28;19976;-62
2022/03/23 18:33:23;;;;;;;;;;;15.20;43.10;;;;;;4995475;28;19921;-63
2022/03/23 18:35:49;;;;;;;;;;;15.10;43.30;;;;;;5010988;28;19910;-62
2022/03/23 18:38:16;;;;;;;;;;;15.10;43.70;;;;;;5007237;28;19931;-61
2022/03/23 18:40:45;;;;;;;;;;;15.00;44.10;;;;;;4996433;28;19922;-61
2022/03/23 18:43:12;;;;;;;;;;;14.90;44.20;;;;;;4995423;28;19928;-61
2022/03/23 18:45:38;;;;;;;;;;;14.90;44.70;;;;;;4995354;28;19944;-61
2022/03/23 18:48:06;;;;;;;;;;;14.80;44.60;;;;;;4995866;28;19921;-62
2022/03/23 18:50:33;;;;;;;;;;;14.70;44.30;;;;;;4996999;28;19922;-64
2022/03/23 18:52:59;;;;;;;;;;;14.70;44.20;;;;;;4996135;28;19921;-60
2022/03/23 18:55:26;;;;;;;;;;;14.60;44.70;;;;;;4994882;28;20440;-61
2022/03/23 18:57:54;;;;;;;;;;;14.50;44.70;;;;;;4994938;28;19999;-63
2022/03/23 19:00:21;;;;;;;;;;;14.40;45.10;;;;;;4995060;28;19947;-61
2022/03/23 19:02:48;;;;;;;;;;;14.40;46.20;;;;;;4995100;28;19929;-61
2022/03/23 19:05:15;;;;;;;;;;;14.40;45.60;;;;;;4994890;28;19925;-61
2022/03/23 19:07:42;;;;;;;;;;;14.30;45.30;;;;;;4994811;28;19925;-60
2022/03/23 19:10:09;;;;;;;;;;;14.20;45.60;;;;;;4994764;28;20274;-61
2022/03/23 19:12:36;;;;;;;;;;;14.20;45.90;;;;;;4994890;28;19961;-61
2022/03/23 19:15:04;;;;;;;;;;;14.20;46.20;;;;;;4995086;28;19922;-61
2022/03/23 19:17:31;;;;;;;;;;;14.10;46.00;;;;;;4998827;28;19929;-61
2022/03/23 19:19:58;;;;;;;;;;;14.10;46.30;;;;;;4999166;28;20369;-61
2022/03/23 19:22:24;;;;;;;;;;;14.00;46.70;;;;;;4999230;28;20352;-63
2022/03/23 19:24:51;;;;;;;;;;;14.00;46.70;;;;;;4998723;28;19925;-62
2022/03/23 19:27:18;;;;;;;;;;;14.00;47.10;;;;;;4998962;28;19944;-61
2022/03/23 19:29:44;;;;;;;;;;;13.90;47.00;;;;;;4998945;28;20035;-61
2022/03/23 19:32:12;;;;;;;;;;;13.90;46.80;;;;;;4999094;28;20336;-65
2022/03/23 19:34:39;;;;;;;;;;;13.90;49.40;;;;;;4999226;28;20262;-62